createdAt,value
2022-12-18T00:02:49.851Z,51.97
2022-12-18T00:05:53.277Z,49.97
2022-12-18T00:08:57.412Z,51.22
2022-12-18T00:11:59.819Z,49.85
2022-12-18T00:15:02.196Z,46.17
2022-12-18T00:18:05.702Z,52.70
2022-12-18T00:21:10.146Z,43.77
2022-12-18T00:24:13.111Z,51.13
2022-12-18T00:27:15.450Z,46.22
2022-12-18T00:30:17.915Z,50.38
2022-12-18T00:33:20.261Z,55.45
2022-12-18T00:36:28.587Z,51.33
2022-12-18T00:39:31.278Z,51.50
2022-12-18T00:42:56.721Z,48.53
2022-12-18T00:45:59.409Z,50.92
2022-12-18T00:49:02.400Z,44.10
2022-12-18T00:52:04.780Z,40.40
2022-12-18T00:55:07.599Z,44.60
2022-12-18T00:58:11.139Z,37.80
2022-12-18T01:01:13.866Z,30.75
2022-12-18T01:04:16.333Z,33.80
2022-12-18T01:07:21.339Z,36.07
2022-12-18T01:10:24.413Z,34.05
2022-12-18T01:13:26.803Z,37.83
2022-12-18T01:16:29.285Z,36.30
2022-12-18T01:19:34.264Z,34.33
2022-12-18T01:22:37.314Z,31.00
2022-12-18T01:25:39.843Z,34.35
2022-12-18T01:28:45.585Z,35.20
2022-12-18T01:31:48.065Z,35.45
2022-12-18T01:34:50.532Z,36.17
2022-12-18T01:37:56.214Z,42.47
2022-12-18T01:40:59.979Z,36.28
2022-12-18T01:44:41.875Z,34.45
2022-12-18T01:47:57.398Z,36.10
2022-12-18T01:51:01.035Z,36.42
2022-12-18T01:54:03.562Z,34.33
2022-12-18T01:57:06.054Z,34.53
2022-12-18T02:00:20.176Z,32.67
2022-12-18T02:03:22.724Z,35.38
2022-12-18T02:06:40.576Z,31.70
2022-12-18T02:10:11.896Z,31.40
2022-12-18T02:13:14.702Z,35.40
2022-12-18T02:16:22.871Z,33.83
2022-12-18T02:19:48.839Z,35.55
2022-12-18T02:23:32.444Z,34.13
2022-12-18T02:26:42.478Z,37.30
2022-12-18T02:29:45.582Z,34.95
2022-12-18T02:32:52.071Z,35.75
2022-12-18T02:35:55.603Z,36.63
2022-12-18T02:39:00.109Z,35.83
2022-12-18T02:42:08.696Z,33.13
2022-12-18T02:45:11.618Z,33.80
2022-12-18T02:48:14.410Z,32.53
2022-12-18T02:51:37.439Z,28.23
2022-12-18T02:55:10.755Z,35.63
2022-12-18T02:58:21.979Z,32.80
2022-12-18T03:01:41.691Z,37.50
2022-12-18T03:04:49.671Z,37.85
2022-12-18T03:08:00.011Z,35.30
2022-12-18T03:11:13.911Z,35.83
2022-12-18T03:14:18.667Z,32.20
2022-12-18T03:17:24.341Z,35.53
2022-12-18T03:20:31.138Z,36.10
2022-12-18T03:23:37.828Z,33.65
2022-12-18T03:26:43.951Z,38.53
2022-12-18T03:30:03.878Z,37.53
2022-12-18T03:33:11.848Z,41.17
2022-12-18T03:36:18.448Z,35.92
2022-12-18T03:39:20.939Z,40.35
2022-12-18T03:42:47.592Z,43.88
2022-12-18T03:45:58.015Z,38.93
2022-12-18T03:49:09.060Z,39.83
2022-12-18T03:52:16.859Z,32.97
2022-12-18T03:55:20.742Z,46.35
2022-12-18T03:58:27.871Z,50.90
2022-12-18T04:01:42.220Z,53.30
2022-12-18T04:04:48.673Z,53.75
2022-12-18T04:07:54.904Z,54.30
2022-12-18T04:10:58.232Z,53.63
2022-12-18T04:14:05.861Z,51.92
2022-12-18T04:17:09.826Z,60.17
2022-12-18T04:20:12.923Z,60.65
2022-12-18T04:23:18.975Z,59.20
2022-12-18T04:26:22.070Z,57.10
2022-12-18T04:29:45.298Z,55.67
2022-12-18T04:32:52.226Z,58.70
2022-12-18T04:35:55.851Z,57.88
2022-12-18T04:38:59.043Z,54.90
2022-12-18T04:42:01.826Z,57.78
2022-12-18T04:45:04.867Z,76.10
2022-12-18T04:48:07.390Z,106.87
2022-12-18T04:51:09.802Z,60.85
2022-12-18T04:54:12.254Z,60.47
2022-12-18T04:57:14.931Z,56.03
2022-12-18T05:00:17.595Z,56.05
2022-12-18T05:03:20.050Z,55.60
2022-12-18T05:06:22.484Z,54.40
2022-12-18T05:09:24.909Z,58.20
2022-12-18T05:12:27.415Z,54.03
2022-12-18T05:15:31.514Z,55.88
2022-12-18T05:18:34.062Z,50.77
2022-12-18T05:21:36.554Z,63.22
2022-12-18T05:24:38.896Z,62.15
2022-12-18T05:27:41.303Z,53.15
2022-12-18T05:30:43.798Z,43.22
2022-12-18T05:33:46.302Z,47.43
2022-12-18T05:36:51.275Z,48.95
2022-12-18T05:39:53.693Z,58.22
2022-12-18T05:42:56.125Z,59.67
2022-12-18T05:45:58.618Z,61.50
2022-12-18T05:49:02.315Z,56.53
2022-12-18T05:52:04.884Z,54.88
2022-12-18T05:55:07.626Z,52.40
2022-12-18T05:58:11.387Z,61.33
2022-12-18T06:01:17.209Z,57.70
2022-12-18T06:04:19.668Z,57.07
2022-12-18T06:07:22.110Z,51.47
2022-12-18T06:10:24.610Z,45.35
2022-12-18T06:13:27.026Z,48.17
2022-12-18T06:16:29.844Z,47.95
2022-12-18T06:19:33.017Z,47.67
2022-12-18T06:22:36.069Z,49.08
2022-12-18T06:25:40.073Z,43.85
2022-12-18T06:28:42.862Z,48.85
2022-12-18T06:31:45.393Z,45.03
2022-12-18T06:34:47.964Z,48.50
2022-12-18T06:37:50.418Z,46.75
2022-12-18T06:40:53.294Z,53.60
2022-12-18T06:43:59.541Z,54.58
2022-12-18T06:47:02.471Z,47.55
2022-12-18T06:50:05.244Z,49.77
2022-12-18T06:53:07.751Z,52.95
2022-12-18T06:56:11.095Z,46.15
2022-12-18T06:59:14.329Z,50.55
2022-12-18T07:02:17.157Z,60.00
2022-12-18T07:05:19.677Z,57.20
2022-12-18T07:08:22.385Z,67.35
2022-12-18T07:11:25.442Z,49.22
2022-12-18T07:14:27.922Z,124.03
2022-12-18T07:17:30.601Z,122.75
2022-12-18T07:20:33.135Z,65.03
2022-12-18T07:23:36.464Z,60.78
2022-12-18T07:26:39.293Z,51.03
2022-12-18T07:29:41.847Z,55.30
2022-12-18T07:32:44.458Z,53.28
2022-12-18T07:35:47.031Z,54.53
2022-12-18T07:38:50.155Z,55.78
2022-12-18T07:42:11.192Z,52.67
2022-12-18T07:45:16.054Z,48.75
2022-12-18T07:48:18.419Z,56.70
2022-12-18T07:51:20.945Z,45.40
2022-12-18T07:54:24.282Z,63.08
2022-12-18T07:57:49.540Z,58.78
2022-12-18T08:00:49.176Z,54.83
2022-12-18T08:03:52.447Z,50.80
2022-12-18T08:06:55.247Z,58.50
2022-12-18T08:09:57.791Z,47.47
2022-12-18T08:13:04.827Z,38.15
2022-12-18T08:16:09.072Z,47.67
2022-12-18T08:19:11.616Z,50.83
2022-12-18T08:22:13.972Z,54.60
2022-12-18T08:25:16.520Z,45.22
2022-12-18T08:28:19.096Z,55.70
2022-12-18T08:31:22.177Z,56.83
2022-12-18T08:34:26.039Z,46.33
2022-12-18T08:37:28.562Z,60.47
2022-12-18T08:40:31.319Z,48.58
2022-12-18T08:43:52.462Z,43.72
2022-12-18T08:46:54.844Z,44.83
2022-12-18T08:49:57.238Z,48.70
2022-12-18T08:52:59.845Z,49.73
2022-12-18T08:56:02.452Z,46.45
2022-12-18T08:59:05.426Z,49.97
2022-12-18T09:02:10.801Z,43.95
2022-12-18T09:05:13.424Z,60.13
2022-12-18T09:08:15.863Z,74.40
2022-12-18T09:11:26.482Z,72.43
2022-12-18T09:14:28.910Z,58.72
2022-12-18T09:17:31.500Z,42.88
2022-12-18T09:20:33.987Z,67.47
2022-12-18T09:23:36.458Z,72.43
2022-12-18T09:26:38.890Z,69.78
2022-12-18T09:29:42.408Z,59.47
2022-12-18T09:32:44.807Z,52.83
2022-12-18T09:35:47.439Z,49.35
2022-12-18T09:38:49.872Z,115.03
2022-12-18T09:41:54.840Z,80.65
2022-12-18T09:44:57.358Z,73.68
2022-12-18T09:47:59.870Z,83.22
2022-12-18T09:51:13.400Z,50.65
2022-12-18T09:54:21.575Z,57.90
2022-12-18T09:57:26.536Z,86.80
2022-12-18T10:00:29.082Z,50.80
2022-12-18T10:03:33.027Z,44.47
2022-12-18T10:06:59.764Z,46.58
2022-12-18T10:10:27.703Z,37.47
2022-12-18T10:13:30.058Z,39.50
2022-12-18T10:16:46.237Z,38.42
2022-12-18T10:20:02.817Z,49.13
2022-12-18T10:23:36.058Z,41.78
2022-12-18T10:26:38.521Z,44.47
2022-12-18T10:29:42.641Z,44.50
2022-12-18T10:32:45.382Z,36.50
2022-12-18T10:35:49.585Z,49.75
2022-12-18T10:38:54.922Z,45.35
2022-12-18T10:42:20.327Z,50.97
2022-12-18T10:45:22.695Z,45.30
2022-12-18T10:48:25.280Z,54.95
2022-12-18T10:51:34.572Z,42.45
2022-12-18T10:54:37.275Z,40.28
2022-12-18T10:57:42.502Z,43.83
2022-12-18T11:00:44.998Z,55.50
2022-12-18T11:04:02.720Z,57.15
2022-12-18T11:07:08.287Z,57.13
2022-12-18T11:10:20.139Z,67.30
2022-12-18T11:13:24.727Z,57.57
2022-12-18T11:16:28.444Z,45.53
2022-12-18T11:19:36.719Z,44.35
2022-12-18T11:22:39.445Z,50.35
2022-12-18T11:25:55.739Z,52.10
2022-12-18T11:29:16.722Z,102.10
2022-12-18T11:32:38.622Z,43.45
2022-12-18T11:35:49.968Z,53.30
2022-12-18T11:38:54.530Z,48.88
2022-12-18T11:42:09.908Z,42.30
2022-12-18T11:45:12.500Z,55.37
2022-12-18T11:48:28.001Z,38.95
2022-12-18T11:51:36.137Z,105.05
2022-12-18T11:54:38.623Z,60.53
2022-12-18T11:57:50.589Z,49.95
2022-12-18T12:01:23.422Z,71.60
2022-12-18T12:04:42.285Z,46.55
2022-12-18T12:07:47.445Z,41.10
2022-12-18T12:11:26.706Z,43.03
2022-12-18T12:15:00.923Z,39.85
2022-12-18T12:18:19.475Z,32.97
2022-12-18T12:21:25.301Z,48.00
2022-12-18T12:24:40.615Z,50.22
2022-12-18T12:27:48.992Z,46.60
2022-12-18T12:31:08.494Z,41.90
2022-12-18T12:34:50.411Z,43.00
2022-12-18T12:38:07.398Z,43.92
2022-12-18T12:41:34.010Z,42.40
2022-12-18T12:44:56.198Z,44.97
2022-12-18T12:47:59.361Z,41.65
2022-12-18T12:51:03.855Z,44.80
2022-12-18T12:54:10.884Z,47.50
2022-12-18T12:57:37.897Z,41.17
2022-12-18T13:00:45.948Z,48.10
2022-12-18T13:04:13.763Z,44.83
2022-12-18T13:07:41.068Z,42.60
2022-12-18T13:10:43.766Z,45.47
2022-12-18T13:14:04.506Z,41.03
2022-12-18T13:17:22.125Z,43.38
2022-12-18T13:20:34.763Z,51.15
2022-12-18T13:23:40.966Z,46.00
2022-12-18T13:26:43.618Z,52.97
2022-12-18T13:29:47.020Z,48.88
2022-12-18T13:33:25.248Z,51.70
2022-12-18T13:36:30.636Z,50.85
2022-12-18T13:39:35.437Z,51.20
2022-12-18T13:43:00.189Z,49.80
2022-12-18T13:46:06.751Z,51.13
2022-12-18T13:49:15.199Z,62.15
2022-12-18T13:52:24.431Z,50.38
2022-12-18T13:55:27.126Z,43.70
2022-12-18T13:58:29.844Z,54.35
2022-12-18T14:01:32.286Z,49.25
2022-12-18T14:04:36.524Z,46.38
2022-12-18T14:07:41.964Z,50.88
2022-12-18T14:10:50.212Z,54.30
2022-12-18T14:13:53.276Z,49.47
2022-12-18T14:16:56.150Z,50.92
2022-12-18T14:19:59.695Z,56.92
2022-12-18T14:23:02.202Z,66.47
2022-12-18T14:26:28.175Z,64.13
2022-12-18T14:29:31.729Z,56.42
2022-12-18T14:32:34.164Z,40.17
2022-12-18T14:35:40.419Z,53.65
2022-12-18T14:38:43.112Z,52.00
2022-12-18T14:41:45.998Z,46.90
2022-12-18T14:45:12.881Z,44.42
2022-12-18T14:48:25.964Z,162.85
2022-12-18T14:51:30.681Z,141.00
2022-12-18T14:54:35.283Z,109.45
2022-12-18T14:57:38.917Z,76.13
2022-12-18T15:00:43.424Z,55.33
2022-12-18T15:03:45.972Z,76.10
2022-12-18T15:06:49.356Z,144.73
2022-12-18T15:10:05.484Z,70.30
2022-12-18T15:13:10.741Z,45.93
2022-12-18T15:16:13.853Z,47.63
2022-12-18T15:19:17.415Z,46.50
2022-12-18T15:22:25.621Z,47.45
2022-12-18T15:25:37.738Z,47.85
2022-12-18T15:29:00.936Z,43.03
2022-12-18T15:32:06.977Z,37.53
2022-12-18T15:35:12.531Z,35.92
2022-12-18T15:38:15.337Z,37.88
2022-12-18T15:41:24.335Z,35.80
2022-12-18T15:44:27.811Z,36.10
2022-12-18T15:47:30.585Z,44.83
2022-12-18T15:50:33.584Z,34.55
2022-12-18T15:53:36.133Z,38.08
2022-12-18T15:57:13.772Z,37.55
2022-12-18T16:00:16.716Z,33.13
2022-12-18T16:03:20.002Z,39.78
2022-12-18T16:06:23.480Z,35.78
2022-12-18T16:09:26.503Z,36.30
2022-12-18T16:12:29.083Z,39.33
2022-12-18T16:15:31.565Z,35.37
2022-12-18T16:18:34.469Z,33.20
2022-12-18T16:21:37.626Z,36.55
2022-12-18T16:24:40.390Z,41.50
2022-12-18T16:27:43.070Z,35.08
2022-12-18T16:30:47.135Z,36.37
2022-12-18T16:33:49.823Z,38.65
2022-12-18T16:36:54.435Z,37.35
2022-12-18T16:39:56.885Z,37.92
2022-12-18T16:42:59.508Z,39.95
2022-12-18T16:46:02.408Z,34.70
2022-12-18T16:49:05.468Z,70.65
2022-12-18T16:52:08.258Z,44.30
2022-12-18T16:55:10.947Z,37.15
2022-12-18T16:58:13.642Z,39.58
2022-12-18T17:01:16.333Z,37.47
2022-12-18T17:04:19.137Z,33.55
2022-12-18T17:07:22.056Z,44.67
2022-12-18T17:10:24.763Z,36.55
2022-12-18T17:13:27.587Z,39.88
2022-12-18T17:16:30.365Z,36.67
2022-12-18T17:19:34.573Z,38.92
2022-12-18T17:22:37.318Z,38.08
2022-12-18T17:25:40.542Z,40.90
2022-12-18T17:28:43.147Z,34.33
2022-12-18T17:31:46.925Z,31.23
2022-12-18T17:34:50.703Z,25.83
2022-12-18T17:37:53.414Z,30.92
2022-12-18T17:41:01.534Z,27.70
2022-12-18T17:44:05.875Z,28.25
2022-12-18T17:47:11.403Z,35.07
2022-12-18T17:50:14.463Z,34.67
2022-12-18T17:53:18.192Z,33.60
2022-12-18T17:56:22.588Z,40.92
2022-12-18T17:59:25.299Z,36.83
2022-12-18T18:02:28.166Z,33.60
2022-12-18T18:05:31.102Z,38.42
2022-12-18T18:08:34.892Z,32.65
2022-12-18T18:11:55.623Z,32.42
2022-12-18T18:14:58.963Z,25.10
2022-12-18T18:18:02.048Z,28.93
2022-12-18T18:21:06.119Z,29.42
2022-12-18T18:24:09.840Z,33.83
2022-12-18T18:27:12.570Z,29.13
2022-12-18T18:30:15.457Z,25.98
2022-12-18T18:33:18.215Z,27.33
2022-12-18T18:36:21.213Z,22.30
2022-12-18T18:39:25.235Z,28.00
2022-12-18T18:42:27.970Z,23.60
2022-12-18T18:45:30.647Z,26.73
2022-12-18T18:48:36.253Z,24.40
2022-12-18T18:51:42.072Z,32.13
2022-12-18T18:55:10.795Z,24.55
2022-12-18T18:58:07.486Z,28.58
2022-12-18T19:01:16.078Z,33.00
2022-12-18T19:04:20.046Z,21.77
2022-12-18T19:07:30.403Z,27.88
2022-12-18T19:10:33.948Z,30.52
2022-12-18T19:13:36.673Z,24.38
2022-12-18T19:16:39.448Z,24.75
2022-12-18T19:19:42.467Z,26.13
2022-12-18T19:22:52.216Z,26.52
2022-12-18T19:26:27.104Z,28.75
2022-12-18T19:29:24.561Z,26.02
2022-12-18T19:32:27.090Z,29.52
2022-12-18T19:35:29.793Z,23.33
2022-12-18T19:38:32.926Z,29.67
2022-12-18T19:41:35.334Z,23.90
2022-12-18T19:44:37.954Z,25.40
2022-12-18T19:47:41.054Z,21.20
2022-12-18T19:50:43.619Z,24.23
2022-12-18T19:53:46.355Z,22.80
2022-12-18T19:56:48.722Z,26.33
2022-12-18T19:59:51.367Z,29.73
2022-12-18T20:03:00.107Z,25.98
2022-12-18T20:06:15.737Z,22.17
2022-12-18T20:09:19.311Z,22.77
2022-12-18T20:12:23.903Z,29.95
2022-12-18T20:15:26.630Z,25.63
2022-12-18T20:18:29.446Z,31.48
2022-12-18T20:21:32.537Z,35.63
2022-12-18T20:24:35.177Z,34.67
2022-12-18T20:27:37.809Z,29.75
2022-12-18T20:30:40.651Z,35.33
2022-12-18T20:33:46.324Z,31.00
2022-12-18T20:36:51.198Z,28.13
2022-12-18T20:39:53.916Z,21.83
2022-12-18T20:42:56.836Z,25.38
2022-12-18T20:46:10.479Z,24.83
2022-12-18T20:49:13.087Z,24.17
2022-12-18T20:52:16.092Z,30.80
2022-12-18T20:55:19.485Z,77.28
2022-12-18T20:58:21.915Z,88.75
2022-12-18T21:01:25.206Z,78.93
2022-12-18T21:04:27.733Z,81.57
2022-12-18T21:07:30.322Z,161.30
2022-12-18T21:10:32.990Z,105.18
2022-12-18T21:13:36.183Z,78.25
2022-12-18T21:16:40.335Z,69.78
2022-12-18T21:19:43.140Z,67.47
2022-12-18T21:22:46.938Z,67.63
2022-12-18T21:25:55.524Z,103.93
2022-12-18T21:29:02.131Z,115.53
2022-12-18T21:32:05.392Z,96.95
2022-12-18T21:35:08.131Z,89.60
2022-12-18T21:38:10.563Z,80.67
2022-12-18T21:41:41.698Z,65.70
2022-12-18T21:44:45.211Z,69.80
2022-12-18T21:47:47.713Z,62.17
2022-12-18T21:50:50.239Z,57.75
2022-12-18T21:53:52.632Z,46.30
2022-12-18T21:57:02.460Z,39.78
2022-12-18T22:00:06.212Z,36.40
2022-12-18T22:03:18.646Z,31.40
2022-12-18T22:06:22.418Z,42.15
2022-12-18T22:09:26.027Z,35.70
2022-12-18T22:12:44.467Z,31.60
2022-12-18T22:15:48.020Z,26.15
2022-12-18T22:18:50.446Z,25.38
2022-12-18T22:21:53.513Z,26.67
2022-12-18T22:24:55.986Z,22.57
2022-12-18T22:28:16.817Z,22.17
2022-12-18T22:31:19.253Z,24.85
2022-12-18T22:34:23.208Z,25.50
2022-12-18T22:37:25.797Z,25.95
2022-12-18T22:40:28.568Z,25.23
2022-12-18T22:43:31.194Z,24.58
2022-12-18T22:46:39.424Z,24.52
2022-12-18T22:49:41.915Z,31.42
2022-12-18T22:52:44.371Z,28.25
2022-12-18T22:55:46.758Z,29.60
2022-12-18T22:58:50.447Z,27.70
2022-12-18T23:01:58.358Z,65.15
2022-12-18T23:05:01.695Z,36.00
2022-12-18T23:08:04.316Z,26.73
2022-12-18T23:11:07.198Z,36.43
2022-12-18T23:14:09.611Z,32.25
2022-12-18T23:17:12.101Z,30.88
2022-12-18T23:20:14.582Z,24.67
2022-12-18T23:23:17.079Z,24.40
2022-12-18T23:26:22.861Z,26.07
2022-12-18T23:29:25.506Z,25.27
2022-12-18T23:32:27.976Z,27.77
2022-12-18T23:35:30.543Z,20.52
2022-12-18T23:38:33.561Z,29.10
2022-12-18T23:41:36.008Z,25.87
2022-12-18T23:44:38.443Z,25.38
2022-12-18T23:47:40.851Z,25.27
2022-12-18T23:50:43.250Z,25.45
2022-12-18T23:53:46.078Z,33.55
2022-12-18T23:56:48.507Z,30.57
2022-12-18T23:59:53.169Z,31.60
